Relevés horaires Melle (Belgique)


Relevés horaires à Melle - Dimanche 29 Nov. 2015
Heure UTC1 Température [°C] Vent [km/h] Hum. [%] Pres.4 [hPa] Visi. [Km] Nébu. [octa] Préc.5 [mm] Cond.
2m. Res. Ros. Dir.2 Vit. Moy. Raf.3
23:00 12.7 11.3 9.4 O 14.8 20.4 33.3 80 1014.7(2.4/3h) -- -- -- --
22:00 12.8 11 9.6 OSO 18.5 20.4 31.5 81 1013.8(1.9/3h) -- -- -- --
21:00 12.4 10.5 9.5 OSO 18.5 20.4 35.2 82 1012.8(1.4/3h) -- -- -- --
20:00 12.4 10.5 9.4 OSO 18.5 20.4 35.2 82 1012.3(0.8/3h) -- -- -- --
19:00 13.0 11.3 9.0 OSO 18.5 18.5 29.6 77 1011.9(0.9/3h) -- -- -- --
18:00 12.6 10.8 9.1 SO 18.5 20.4 35.2 79 1011.4(0.4/3h) -- -- 0.5/12h
--
17:00 12.5 11 9.0 OSO 14.8 18.5 33.3 79 1011.5(0.6/3h) -- -- -- --
16:00 12.4 10.7 8.5 OSO 16.7 18.5 29.6 77 1011(0.1/3h) -- -- -- --
15:00 12.2 10.5 8.5 OSO 16.7 18.5 31.5 78 1011(-0.3/3h) -- -- -- --
14:00 12.0 10.2 8.6 OSO 16.7 18.5 29.6 80 1010.9(-0.4/3h) -- -- -- --
13:00 12.3 10.6 7.9 OSO 16.7 18.5 31.5 74 1010.9(-0.6/3h) -- -- -- --
12:00 11.4 9.7 9.2 SO 14.8 16.7 24.1 86 1011.3(-0.3/3h) -- -- 0.5/6h
--
11:00 10.7 9.3 8.5 SO 11.1 13.0 22.2 86 1011.3(-0.1/3h) -- -- -- --
10:00 10.7 9.3 7.9 SO 11.1 11.1 18.5 83 1011.5(0.7/3h) -- -- -- --
09:00 10.4 8.9 7.9 OSO 11.1 13.0 20.4 84 1011.6(1.2/3h) -- -- -- --
08:00 10.1 8.6 8.2 SO 11.1 11.1 18.5 88 1011.4(1.4/3h) -- -- -- --
07:00 9.8 8.2 8.0 SO 11.1 13.0 20.4 89 1010.8(0.4/3h) -- -- -- --
06:00 9.5 7.8 7.6 SO 11.1 16.7 25.9 88 1010.4(0.4/3h) -- -- 5/12h
--
05:00 8.9 7.4 7.2 SSO 9.3 11.1 20.4 89 1010(0.0/3h) -- -- -- --
04:00 9.0 7.2 7.1 SO 11.1 14.8 24.1 88 1010.4(0.7/3h) -- -- -- --
03:00 8.8 6.7 6.9 SO 13.0 16.7 25.9 88 1010(0.5/3h) -- -- -- --
02:00 8.7 6.3 6.9 SO 14.8 16.7 25.9 88 1010(-0.1/3h) -- -- -- --
01:00 8.1 5.6 6.3 SO 14.8 16.7 24.1 88 1009.7(-1.2/3h) -- -- -- --
00:00 7.6 4.7 5.8 SO 16.7 20.4 33.3 88 1009.5(-1.8/3h) -- -- 2/6h
--

1 Coordinated Universal Time. Actuellement il est 15:00 locale et 13:00 UTC.

2 Le vent souffle depuis la direction indiquée vers la direction oposée.

3 Les rafales max. sont disponible 40 min après l'heure du relevé.

4 Pour les stations d'altitude (plus de 600m) le géopotentiel du niveau le plus proche de la pression obligatoire est indiqué.

5 Les stations disposant d'un diffuseur peuvent indiquer "trace". Cela signifie que des précipitations ont touchés le sol mais que la quantité est inférieure à 0.1 mm.

Récapitulatif de la journée
Température [°C] Vent [km/h] Ensoleillement4 [h] Precipitations totale5 [mm] Pression [Hpa]
Min1 Max.2 Moy.3 Max. Min Max.
6.9 12.8 16.8 35.2 0 h 0 min 0 1009.5 1014.7

1 Température minimale relevée entre 18:00 UTC la veille et 18:00 UTC le jour donné.

2 Température maximale relevée entre 06:00 UTC le jour donné et 06:00 UTC le lendemain.

3 Vent moyen de la journée basé sur les relevés horaires.

4 Ensoleillement en heures relevé entre 06:00 UTC la veille et 06:00 UTC le jour donné.

5 Précipitations totales tombées entre 06:00 UTC la jour donné et 06:00 UTC le lendemain.

Graphiques horaires